Time;durP1;ratioP1;P1;durP2;ratioP2;P2;SDS_P1;SDS_P2;PMS_P1;PMS_P2;Temp;Humidity;BMP_temperature;BMP_pressure;BME280_temperature;BME280_humidity;BME280_pressure;Samples;Min_cycle;Max_cycle;Signal;HPM_P1;HPM_P2
2021/09/25 00:00:21;;;;;;;0.10;0.10;;;13.50;99.90;;;;;;4941230;28;20035;-91
2021/09/25 00:02:47;;;;;;;0.30;0.30;;;13.40;99.90;;;;;;4941403;28;20031;-91
2021/09/25 00:05:13;;;;;;;0.80;0.80;;;13.40;99.90;;;;;;4941107;28;20023;-92
2021/09/25 00:07:39;;;;;;;0.20;0.20;;;13.40;99.90;;;;;;4940977;28;20496;-91
2021/09/25 00:10:05;;;;;;;0.10;0.10;;;13.40;99.90;;;;;;4941311;28;20066;-92
2021/09/25 00:12:31;;;;;;;0.20;0.20;;;13.40;99.90;;;;;;4942056;28;20409;-92
2021/09/25 00:14:57;;;;;;;0.20;0.20;;;13.40;99.90;;;;;;4944358;28;20057;-91
2021/09/25 00:17:22;;;;;;;0.30;0.30;;;13.50;99.90;;;;;;4942234;28;20023;-92
2021/09/25 00:19:49;;;;;;;1.95;1.63;;;13.50;99.90;;;;;;4942047;28;20030;-92
2021/09/25 00:22:15;;;;;;;0.10;0.10;;;13.50;99.90;;;;;;4941846;28;20038;-91
2021/09/25 00:24:41;;;;;;;1.20;0.50;;;13.50;99.90;;;;;;4941671;28;20030;-92
2021/09/25 00:27:07;;;;;;;0.20;0.20;;;13.40;99.90;;;;;;4941624;28;20038;-92
2021/09/25 00:29:33;;;;;;;0.10;0.10;;;13.30;99.90;;;;;;4941010;28;20094;-92
2021/09/25 00:32:00;;;;;;;0.65;0.65;;;13.10;99.90;;;;;;4940918;28;20146;-91
2021/09/25 00:34:25;;;;;;;7.22;5.38;;;13.10;99.90;;;;;;4941130;28;20165;-92
2021/09/25 00:36:51;;;;;;;0.55;0.55;;;13.20;99.90;;;;;;4940734;28;20493;-92
2021/09/25 00:39:17;;;;;;;0.10;0.10;;;13.10;99.90;;;;;;4940937;28;20027;-92
2021/09/25 00:41:43;;;;;;;0.20;0.20;;;13.10;99.90;;;;;;4941125;28;20481;-92
2021/09/25 00:44:09;;;;;;;0.30;0.30;;;13.00;99.90;;;;;;4940869;28;20081;-92
2021/09/25 00:46:34;;;;;;;0.17;0.17;;;13.10;99.90;;;;;;4940644;28;20464;-92
2021/09/25 00:49:00;;;;;;;0.15;0.15;;;13.10;99.90;;;;;;4940902;28;20105;-92
2021/09/25 00:51:26;;;;;;;0.30;0.30;;;13.10;99.90;;;;;;4940760;28;20037;-92
2021/09/25 00:53:52;;;;;;;0.57;0.57;;;13.10;99.90;;;;;;4940815;28;20026;-92
2021/09/25 00:56:18;;;;;;;0.10;0.10;;;13.10;99.90;;;;;;4940693;28;20097;-91
2021/09/25 00:58:45;;;;;;;0.10;0.10;;;13.10;99.90;;;;;;4940680;28;20029;-91
2021/09/25 01:01:11;;;;;;;0.20;0.20;;;13.10;99.90;;;;;;4940873;28;20480;-92
2021/09/25 01:03:37;;;;;;;0.20;0.20;;;13.00;99.90;;;;;;4941117;28;20129;-91
2021/09/25 01:06:03;;;;;;;0.10;0.10;;;12.90;99.90;;;;;;4940345;28;20054;-91
2021/09/25 01:08:29;;;;;;;0.10;0.10;;;13.00;99.90;;;;;;4940808;28;20069;-91
2021/09/25 01:10:56;;;;;;;0.35;0.35;;;12.90;99.90;;;;;;4941404;28;20449;-91
2021/09/25 01:13:23;;;;;;;0.10;0.10;;;12.90;99.90;;;;;;4941568;28;20026;-92
2021/09/25 01:15:49;;;;;;;0.20;0.20;;;13.00;99.90;;;;;;4959761;28;20035;-91
2021/09/25 01:18:15;;;;;;;0.10;0.10;;;12.90;99.90;;;;;;4948416;28;20071;-92
2021/09/25 01:20:41;;;;;;;0.20;0.20;;;13.00;99.90;;;;;;4940910;28;20030;-92
2021/09/25 01:23:07;;;;;;;3.42;1.13;;;13.10;99.90;;;;;;4940639;28;20034;-92
2021/09/25 01:25:33;;;;;;;0.17;0.17;;;13.00;99.90;;;;;;4940439;28;20050;-92
2021/09/25 01:28:00;;;;;;;1.85;0.35;;;12.90;99.90;;;;;;4940352;28;20031;-91
2021/09/25 01:30:27;;;;;;;2.60;0.68;;;12.90;99.90;;;;;;4940539;28;20034;-91
2021/09/25 01:32:54;;;;;;;0.30;0.30;;;12.90;99.90;;;;;;4940359;28;20034;-92
2021/09/25 01:35:22;;;;;;;0.20;0.20;;;12.70;99.90;;;;;;4940618;28;20023;-92
2021/09/25 01:37:51;;;;;;;0.20;0.20;;;12.80;99.90;;;;;;4940750;28;20050;-91
2021/09/25 01:40:18;;;;;;;0.20;0.20;;;12.70;99.90;;;;;;4940427;28;20031;-91
2021/09/25 01:42:44;;;;;;;0.47;0.47;;;12.70;99.90;;;;;;4940305;28;20030;-92
2021/09/25 01:45:11;;;;;;;0.17;0.17;;;12.50;99.90;;;;;;4940074;28;20037;-92
2021/09/25 01:47:40;;;;;;;0.28;0.28;;;12.50;99.90;;;;;;4940182;28;20053;-91
2021/09/25 01:50:09;;;;;;;0.75;0.75;;;12.60;99.90;;;;;;4940163;28;20033;-92
2021/09/25 01:52:34;;;;;;;1.17;1.17;;;12.50;99.90;;;;;;4940435;28;20027;-91
2021/09/25 01:55:00;;;;;;;0.10;0.10;;;12.40;99.90;;;;;;4940249;28;20055;-92
2021/09/25 01:57:26;;;;;;;0.60;0.60;;;12.30;99.90;;;;;;4940220;28;20023;-92
2021/09/25 01:59:52;;;;;;;0.63;0.63;;;12.10;99.90;;;;;;4941813;28;20018;-92
2021/09/25 02:02:18;;;;;;;0.20;0.20;;;12.00;99.90;;;;;;4943808;28;20030;-91
2021/09/25 02:04:47;;;;;;;0.25;0.25;;;12.00;99.90;;;;;;4943255;28;20023;-91
2021/09/25 02:07:18;;;;;;;0.10;0.10;;;12.00;99.90;;;;;;4943710;28;20027;-91
2021/09/25 02:09:46;;;;;;;1.55;1.35;;;12.10;99.90;;;;;;4943536;28;20027;-92
2021/09/25 02:12:11;;;;;;;1.35;0.75;;;12.10;99.90;;;;;;4943286;28;20027;-91
2021/09/25 02:14:38;;;;;;;0.10;0.10;;;12.20;99.90;;;;;;4943501;28;20034;-92
2021/09/25 02:17:04;;;;;;;0.20;0.20;;;12.30;99.90;;;;;;4944522;28;20031;-92
2021/09/25 02:19:30;;;;;;;0.10;0.10;;;12.30;99.90;;;;;;4943292;28;20019;-92
2021/09/25 02:21:56;;;;;;;0.20;0.20;;;12.40;99.90;;;;;;4943397;28;20038;-91
2021/09/25 02:24:22;;;;;;;0.10;0.10;;;12.40;99.90;;;;;;4943176;28;20027;-91
2021/09/25 02:26:47;;;;;;;0.10;0.10;;;12.30;99.90;;;;;;4942756;28;20078;-91
2021/09/25 02:29:13;;;;;;;0.52;0.52;;;12.20;99.90;;;;;;4943086;28;20035;-91
2021/09/25 02:31:39;;;;;;;0.20;0.20;;;12.20;99.90;;;;;;4943182;28;20030;-92
2021/09/25 02:34:05;;;;;;;0.10;0.10;;;12.20;99.90;;;;;;4943041;28;20022;-91
2021/09/25 02:36:31;;;;;;;0.20;0.20;;;12.10;99.90;;;;;;4942910;28;20022;-91
2021/09/25 02:38:57;;;;;;;0.20;0.20;;;12.20;99.90;;;;;;4942976;28;20023;-91
2021/09/25 02:41:23;;;;;;;0.70;0.40;;;12.20;99.90;;;;;;4942891;28;20026;-91
2021/09/25 02:43:49;;;;;;;0.10;0.10;;;12.20;99.90;;;;;;4942639;28;20460;-91
2021/09/25 02:46:15;;;;;;;0.47;0.47;;;12.20;99.90;;;;;;4942537;28;20031;-91
2021/09/25 02:48:40;;;;;;;0.47;0.43;;;12.10;99.90;;;;;;4943261;28;20515;-91
2021/09/25 02:51:07;;;;;;;0.50;0.50;;;12.10;99.90;;;;;;4942624;28;20045;-92
2021/09/25 02:53:33;;;;;;;0.10;0.10;;;12.10;99.90;;;;;;4942968;28;20471;-92
2021/09/25 02:55:58;;;;;;;0.20;0.20;;;12.10;99.90;;;;;;4942779;28;20127;-92
2021/09/25 02:58:24;;;;;;;0.15;0.15;;;12.20;99.90;;;;;;4942574;28;20026;-91
2021/09/25 03:00:50;;;;;;;0.30;0.30;;;12.30;99.90;;;;;;4942432;28;20019;-92
2021/09/25 03:03:15;;;;;;;0.10;0.10;;;12.40;99.90;;;;;;4942528;28;20030;-91
2021/09/25 03:05:41;;;;;;;0.20;0.20;;;12.40;99.90;;;;;;4942163;28;20042;-91
2021/09/25 03:08:07;;;;;;;0.20;0.20;;;12.30;99.90;;;;;;4942395;28;20034;-91
2021/09/25 03:10:33;;;;;;;0.10;0.10;;;12.20;99.90;;;;;;4941673;28;20178;-92
2021/09/25 03:12:58;;;;;;;0.30;0.30;;;12.10;99.90;;;;;;4942178;28;20161;-92
2021/09/25 03:15:24;;;;;;;0.20;0.20;;;12.10;99.90;;;;;;4942016;28;20023;-91
2021/09/25 03:17:50;;;;;;;0.20;0.20;;;12.00;99.90;;;;;;4942528;28;20037;-91
2021/09/25 03:20:17;;;;;;;0.32;0.32;;;12.00;99.90;;;;;;4942474;28;20113;-91
2021/09/25 03:22:42;;;;;;;0.30;0.30;;;12.00;99.90;;;;;;4942300;28;20465;-91
2021/09/25 03:25:09;;;;;;;0.20;0.20;;;11.90;99.90;;;;;;4942235;28;20069;-91
2021/09/25 03:27:39;;;;;;;0.20;0.20;;;11.90;99.90;;;;;;4942163;28;20058;-91
2021/09/25 03:30:07;;;;;;;0.73;0.35;;;11.80;99.90;;;;;;4942390;28;20436;-92
2021/09/25 03:32:33;;;;;;;0.13;0.13;;;11.90;99.90;;;;;;4941932;28;20381;-92
2021/09/25 03:34:58;;;;;;;0.20;0.20;;;12.00;99.90;;;;;;4941659;28;20455;-92
2021/09/25 03:37:24;;;;;;;0.20;0.20;;;12.10;99.90;;;;;;4942309;28;20019;-92
2021/09/25 03:39:50;;;;;;;0.20;0.20;;;12.20;99.90;;;;;;4941650;28;20392;-91
2021/09/25 03:42:16;;;;;;;0.10;0.10;;;12.10;99.90;;;;;;4941743;28;20026;-92
2021/09/25 03:44:42;;;;;;;0.30;0.30;;;12.20;99.90;;;;;;4941592;28;20026;-92
2021/09/25 03:47:09;;;;;;;0.35;0.35;;;12.30;99.90;;;;;;4941887;28;20034;-91
2021/09/25 03:49:35;;;;;;;0.20;0.20;;;12.30;99.90;;;;;;4941788;28;20404;-92
2021/09/25 03:52:01;;;;;;;0.10;0.10;;;12.30;99.90;;;;;;4941589;28;20026;-91
2021/09/25 03:54:26;;;;;;;0.20;0.20;;;12.40;99.90;;;;;;4941338;28;20440;-92
2021/09/25 03:56:52;;;;;;;0.20;0.20;;;12.50;99.90;;;;;;4941454;28;20051;-91
2021/09/25 03:59:18;;;;;;;0.10;0.10;;;12.40;99.90;;;;;;4941628;28;20117;-91
2021/09/25 04:01:44;;;;;;;0.10;0.10;;;12.20;99.90;;;;;;4941782;28;20617;-92
2021/09/25 04:04:10;;;;;;;0.22;0.22;;;12.10;99.90;;;;;;4941606;28;20031;-91
2021/09/25 04:06:37;;;;;;;0.10;0.10;;;12.10;99.90;;;;;;4941476;28;20034;-91
2021/09/25 04:09:05;;;;;;;0.20;0.20;;;12.10;99.90;;;;;;4941262;28;20026;-92
2021/09/25 04:11:31;;;;;;;0.10;0.10;;;12.10;99.90;;;;;;4946356;28;20042;-91
2021/09/25 04:13:57;;;;;;;0.30;0.30;;;12.10;99.90;;;;;;4941406;28;20027;-91
2021/09/25 04:16:24;;;;;;;0.20;0.20;;;12.10;99.90;;;;;;4941208;28;20030;-91
2021/09/25 04:18:50;;;;;;;0.50;0.50;;;12.20;99.90;;;;;;4942597;28;20023;-92
2021/09/25 04:21:16;;;;;;;0.30;0.30;;;12.20;99.90;;;;;;4964678;28;20090;-91
2021/09/25 04:23:42;;;;;;;0.15;0.15;;;11.90;99.90;;;;;;4964346;28;20030;-91
2021/09/25 04:26:08;;;;;;;0.45;0.45;;;11.80;99.90;;;;;;4959095;28;20327;-91
2021/09/25 04:28:34;;;;;;;0.10;0.10;;;11.80;99.90;;;;;;4940895;28;20050;-91
2021/09/25 04:31:00;;;;;;;0.13;0.13;;;11.70;99.90;;;;;;4941003;28;20066;-91
2021/09/25 04:33:26;;;;;;;0.20;0.20;;;11.70;99.90;;;;;;4940840;28;20039;-91
2021/09/25 04:35:52;;;;;;;0.20;0.20;;;11.80;99.90;;;;;;4940944;28;20030;-92
2021/09/25 04:38:17;;;;;;;0.60;0.60;;;11.80;99.90;;;;;;4941250;28;20023;-92
2021/09/25 04:40:43;;;;;;;0.20;0.20;;;11.90;99.90;;;;;;4941226;28;20046;-92
2021/09/25 04:43:09;;;;;;;0.20;0.20;;;11.80;99.90;;;;;;4940835;28;20397;-91
2021/09/25 04:45:35;;;;;;;0.10;0.10;;;11.80;99.90;;;;;;4941232;28;20456;-91
2021/09/25 04:48:01;;;;;;;0.20;0.20;;;11.80;99.90;;;;;;4941554;28;20031;-91
2021/09/25 04:50:29;;;;;;;2.30;1.17;;;11.60;99.90;;;;;;4941263;28;20027;-91
2021/09/25 04:53:07;;;;;;;0.50;0.50;;;11.50;99.90;;;;;;4941251;28;20456;-91
2021/09/25 04:55:34;;;;;;;0.20;0.20;;;11.40;99.90;;;;;;4941182;28;20116;-91
2021/09/25 04:57:59;;;;;;;0.22;0.22;;;11.40;99.90;;;;;;4940963;28;20027;-91
2021/09/25 05:00:25;;;;;;;2.05;0.38;;;11.40;99.90;;;;;;4941543;28;20087;-91
2021/09/25 05:02:51;;;;;;;0.30;0.30;;;11.30;99.90;;;;;;4941435;28;20480;-91
2021/09/25 05:05:18;;;;;;;0.75;0.75;;;11.30;99.90;;;;;;4940984;28;20551;-91
2021/09/25 05:07:43;;;;;;;1.15;0.50;;;11.40;99.90;;;;;;4941760;28;20081;-91
2021/09/25 05:10:10;;;;;;;0.20;0.20;;;11.40;99.90;;;;;;4941184;28;20034;-91
2021/09/25 05:12:36;;;;;;;0.55;0.55;;;11.50;99.90;;;;;;4941076;28;20114;-91
2021/09/25 05:15:01;;;;;;;0.68;0.68;;;11.40;99.90;;;;;;4941131;28;20046;-91
2021/09/25 05:17:27;;;;;;;1.40;0.40;;;11.30;99.90;;;;;;4941683;28;20084;-91
2021/09/25 05:19:53;;;;;;;0.22;0.22;;;11.20;99.90;;;;;;4941165;28;20042;-92
2021/09/25 05:22:19;;;;;;;0.85;0.85;;;11.30;99.90;;;;;;4941190;28;20472;-91
2021/09/25 05:24:45;;;;;;;0.17;0.17;;;11.40;99.90;;;;;;4941340;28;20492;-91
2021/09/25 05:27:12;;;;;;;0.32;0.32;;;11.50;99.90;;;;;;4940553;28;20551;-92
2021/09/25 05:29:38;;;;;;;0.20;0.20;;;11.70;99.90;;;;;;4941322;28;20400;-92
2021/09/25 05:32:05;;;;;;;0.10;0.10;;;11.80;99.90;;;;;;4941451;28;20030;-92
2021/09/25 05:34:31;;;;;;;5.03;1.33;;;11.70;99.90;;;;;;4941875;28;20019;-91
2021/09/25 05:36:57;;;;;;;0.35;0.35;;;11.60;99.90;;;;;;4944274;28;20034;-92
2021/09/25 05:39:24;;;;;;;0.22;0.22;;;11.70;99.90;;;;;;4944672;28;20511;-92
2021/09/25 05:41:50;;;;;;;0.32;0.30;;;11.70;99.90;;;;;;4945574;28;20027;-92
2021/09/25 05:44:16;;;;;;;0.85;0.50;;;11.80;99.90;;;;;;4944787;28;20030;-92
2021/09/25 05:46:43;;;;;;;0.57;0.55;;;11.80;99.90;;;;;;4944319;28;20106;-92
2021/09/25 05:49:09;;;;;;;0.10;0.10;;;11.90;99.90;;;;;;4948297;28;20050;-92
2021/09/25 05:51:35;;;;;;;0.10;0.10;;;12.00;99.90;;;;;;4944404;28;20128;-92
2021/09/25 05:54:01;;;;;;;0.22;0.22;;;12.20;99.90;;;;;;4949207;28;20150;-92
2021/09/25 05:56:26;;;;;;;0.10;0.10;;;12.50;99.90;;;;;;4946271;28;20029;-92
2021/09/25 05:58:52;;;;;;;0.25;0.22;;;12.60;99.90;;;;;;4944951;28;20391;-92
2021/09/25 06:01:18;;;;;;;0.30;0.30;;;12.70;99.90;;;;;;4947458;28;20026;-92
2021/09/25 06:03:43;;;;;;;0.20;0.20;;;12.70;99.90;;;;;;4958471;28;20023;-92
2021/09/25 06:06:09;;;;;;;0.10;0.10;;;12.80;99.90;;;;;;4945455;28;20022;-92
2021/09/25 06:08:35;;;;;;;0.10;0.10;;;12.90;99.90;;;;;;4944241;28;20049;-92
2021/09/25 06:11:00;;;;;;;0.75;0.75;;;13.00;99.90;;;;;;4944163;28;20031;-92
2021/09/25 06:13:26;;;;;;;0.98;0.98;;;13.00;99.90;;;;;;4943954;28;20477;-92
2021/09/25 06:15:52;;;;;;;0.10;0.10;;;13.00;99.90;;;;;;4943993;28;20027;-92
2021/09/25 06:18:17;;;;;;;0.10;0.10;;;13.00;99.90;;;;;;4943623;28;20019;-92
2021/09/25 06:20:43;;;;;;;1.63;1.25;;;13.30;99.90;;;;;;4943492;28;20019;-92
2021/09/25 06:23:09;;;;;;;0.10;0.10;;;13.40;99.90;;;;;;4943125;28;20035;-92
2021/09/25 06:25:35;;;;;;;0.20;0.20;;;13.50;99.90;;;;;;4943090;28;20396;-92
2021/09/25 06:28:02;;;;;;;0.65;0.50;;;13.60;99.90;;;;;;4944025;28;20086;-92
2021/09/25 06:30:27;;;;;;;0.40;0.40;;;13.60;99.90;;;;;;4943067;28;20031;-92
2021/09/25 06:33:25;;;;;;;0.65;0.65;;;13.60;99.90;;;;;;4943633;28;20114;-92
2021/09/25 06:35:53;;;;;;;0.10;0.10;;;13.60;99.90;;;;;;4943479;28;20483;-92
2021/09/25 06:38:19;;;;;;;0.10;0.10;;;13.70;99.90;;;;;;4943481;28;20411;-92
2021/09/25 06:40:45;;;;;;;0.10;0.10;;;13.80;99.90;;;;;;4949550;28;20387;-92
2021/09/25 06:43:12;;;;;;;0.50;0.50;;;14.10;99.90;;;;;;4943245;28;20122;-93
2021/09/25 06:45:39;;;;;;;0.10;0.10;;;14.30;99.90;;;;;;4942850;28;20058;-92
2021/09/25 06:48:05;;;;;;;0.10;0.10;;;14.40;99.90;;;;;;4954526;28;20022;-92
2021/09/25 06:50:31;;;;;;;3.60;1.30;;;14.50;99.90;;;;;;4962746;28;20113;-93
2021/09/25 06:52:57;;;;;;;0.38;0.38;;;14.60;99.90;;;;;;4956820;28;20058;-92
2021/09/25 06:55:23;;;;;;;0.10;0.10;;;14.60;99.90;;;;;;4942933;28;20027;-93
2021/09/25 06:58:26;;;;;;;0.10;0.10;;;14.60;99.90;;;;;;4943863;28;20038;-93
2021/09/25 07:01:03;;;;;;;0.10;0.10;;;14.70;99.90;;;;;;4944004;28;20653;-92
2021/09/25 07:03:29;;;;;;;0.10;0.10;;;14.90;99.90;;;;;;4944109;28;20030;-92
2021/09/25 07:05:55;;;;;;;0.17;0.17;;;14.90;99.90;;;;;;4944748;28;20019;-91
2021/09/25 07:08:23;;;;;;;0.10;0.10;;;15.00;99.90;;;;;;4957035;28;20030;-94
2021/09/25 07:10:50;;;;;;;0.10;0.10;;;15.00;99.90;;;;;;4943155;28;20531;-91
2021/09/25 07:13:17;;;;;;;0.10;0.10;;;15.10;99.90;;;;;;4951871;28;20133;-92
2021/09/25 07:15:43;;;;;;;0.10;0.10;;;15.20;99.90;;;;;;4943266;28;20507;-93
2021/09/25 07:18:09;;;;;;;0.10;0.10;;;15.40;99.90;;;;;;4962576;28;20031;-93
2021/09/25 07:20:35;;;;;;;0.10;0.10;;;15.50;99.90;;;;;;4962453;28;20037;-93
2021/09/25 07:23:01;;;;;;;2.08;1.95;;;15.70;99.90;;;;;;4962616;28;20030;-93
2021/09/25 07:25:28;;;;;;;0.13;0.13;;;15.70;99.90;;;;;;4962591;28;20085;-94
2021/09/25 07:27:55;;;;;;;0.10;0.10;;;15.80;99.90;;;;;;4961863;28;20033;-92
2021/09/25 07:30:21;;;;;;;0.10;0.10;;;15.90;99.90;;;;;;4962449;28;20026;-93
2021/09/25 07:32:47;;;;;;;0.10;0.10;;;15.90;99.90;;;;;;4963042;28;20022;-93
2021/09/25 07:35:15;;;;;;;0.10;0.10;;;16.00;99.90;;;;;;4962558;28;20045;-92
2021/09/25 07:37:42;;;;;;;0.10;0.10;;;16.10;99.90;;;;;;4946569;28;20106;-93
2021/09/25 07:40:09;;;;;;;1.33;1.23;;;16.20;99.90;;;;;;4942404;28;20077;-92
2021/09/25 07:42:35;;;;;;;0.10;0.10;;;16.30;99.90;;;;;;4942563;28;20027;-92
2021/09/25 07:45:01;;;;;;;0.10;0.10;;;16.40;99.90;;;;;;4941812;28;20027;-93
2021/09/25 07:47:27;;;;;;;0.10;0.10;;;16.40;99.90;;;;;;4941670;28;20023;-93
2021/09/25 07:49:52;;;;;;;0.10;0.10;;;16.50;99.90;;;;;;4941756;28;20030;-93
2021/09/25 07:52:18;;;;;;;0.15;0.15;;;16.60;99.90;;;;;;4942843;28;20511;-94
2021/09/25 07:54:44;;;;;;;0.10;0.10;;;16.70;99.90;;;;;;4942336;28;20213;-93
2021/09/25 07:57:10;;;;;;;0.10;0.10;;;16.80;99.90;;;;;;4944275;28;20026;-92
2021/09/25 08:00:10;;;;;;;0.10;0.10;;;16.80;99.90;;;;;;4947494;28;20053;-92
2021/09/25 08:02:50;;;;;;;0.10;0.10;;;16.90;99.90;;;;;;4955232;28;20631;-92
2021/09/25 08:05:17;;;;;;;0.10;0.10;;;17.00;99.90;;;;;;4946219;28;20125;-91
2021/09/25 08:07:43;;;;;;;0.10;0.10;;;17.00;99.90;;;;;;4942853;28;20117;-92
2021/09/25 08:10:11;;;;;;;0.20;0.20;;;17.10;99.90;;;;;;4941764;28;20082;-91
2021/09/25 08:12:37;;;;;;;0.10;0.10;;;17.10;99.90;;;;;;4943364;28;20118;-92
2021/09/25 08:15:04;;;;;;;0.10;0.10;;;17.20;99.90;;;;;;4941911;28;20095;-92
2021/09/25 08:17:30;;;;;;;0.10;0.10;;;17.40;99.90;;;;;;4941673;28;20050;-92
2021/09/25 08:19:55;;;;;;;0.10;0.10;;;17.40;99.90;;;;;;4941692;28;20073;-91
2021/09/25 08:22:21;;;;;;;0.08;0.08;;;17.50;99.90;;;;;;4943432;28;20122;-92
2021/09/25 08:24:47;;;;;;;0.10;0.10;;;17.60;99.90;;;;;;4941645;28;20069;-91
2021/09/25 08:27:13;;;;;;;0.10;0.10;;;17.70;99.90;;;;;;4942139;28;20026;-91
2021/09/25 08:29:39;;;;;;;0.10;0.10;;;17.80;99.90;;;;;;4942337;28;20081;-92
2021/09/25 08:32:05;;;;;;;0.10;0.10;;;17.80;99.90;;;;;;4942097;28;20155;-92
2021/09/25 08:34:31;;;;;;;0.10;0.10;;;17.90;99.90;;;;;;4941884;28;20069;-92
2021/09/25 08:36:57;;;;;;;0.10;0.10;;;18.00;99.90;;;;;;4941994;28;20026;-91
2021/09/25 08:39:23;;;;;;;0.20;0.20;;;18.10;99.90;;;;;;4942181;28;20019;-92
2021/09/25 08:41:51;;;;;;;0.20;0.20;;;18.20;99.90;;;;;;4942119;28;20082;-92
2021/09/25 08:44:17;;;;;;;0.10;0.10;;;18.30;99.90;;;;;;4941264;28;20038;-92
2021/09/25 08:46:43;;;;;;;0.10;0.10;;;18.50;99.90;;;;;;4941649;28;20081;-92
2021/09/25 08:49:09;;;;;;;0.10;0.10;;;18.60;99.90;;;;;;4940967;28;20118;-91
2021/09/25 08:51:36;;;;;;;0.10;0.10;;;18.80;99.90;;;;;;4943796;28;20033;-92
2021/09/25 08:54:03;;;;;;;0.10;0.10;;;19.10;99.90;;;;;;4942322;28;20041;-92
2021/09/25 08:56:29;;;;;;;0.10;0.10;;;19.40;99.90;;;;;;4941438;28;20027;-92
2021/09/25 08:58:57;;;;;;;0.10;0.10;;;19.90;99.90;;;;;;4941353;28;20703;-92
2021/09/25 09:01:24;;;;;;;0.10;0.10;;;20.30;99.90;;;;;;4940948;28;20026;-92
2021/09/25 09:03:52;;;;;;;0.00;0.00;;;20.80;99.80;;;;;;4941021;28;20027;-92
2021/09/25 09:06:30;;;;;;;0.10;0.10;;;21.20;97.60;;;;;;4941194;28;20023;-92
2021/09/25 09:09:01;;;;;;;0.00;0.00;;;21.60;96.70;;;;;;4941490;28;20481;-92
2021/09/25 09:11:27;;;;;;;0.00;0.00;;;21.90;94.70;;;;;;4984719;23;20055;-92
2021/09/25 09:13:55;;;;;;;0.10;0.10;;;22.10;93.80;;;;;;4982879;28;20022;-91
2021/09/25 09:16:21;;;;;;;0.47;0.47;;;22.50;92.60;;;;;;4984665;28;20026;-91
2021/09/25 09:18:49;;;;;;;0.00;0.00;;;22.80;90.70;;;;;;4992502;28;20033;-90
2021/09/25 09:21:20;;;;;;;0.10;0.10;;;22.60;91.20;;;;;;4992579;28;20022;-91
2021/09/25 09:23:51;;;;;;;;;;;22.50;90.00;;;;;;5003366;28;20448;-91
2021/09/25 09:26:37;;;;;;;0.43;0.40;;;22.80;89.10;;;;;;5004196;28;19909;-91
2021/09/25 09:29:05;;;;;;;0.10;0.10;;;23.30;83.50;;;;;;5003609;28;20480;-91
2021/09/25 09:31:31;;;;;;;0.10;0.10;;;23.60;83.00;;;;;;5003751;28;20112;-90
2021/09/25 09:34:02;;;;;;;1.60;0.65;;;23.90;81.50;;;;;;5002877;28;20032;-92
2021/09/25 09:36:30;;;;;;;0.30;0.30;;;24.20;78.90;;;;;;5003137;28;20017;-92
2021/09/25 09:38:57;;;;;;;0.20;0.20;;;24.20;75.40;;;;;;5002881;28;20490;-91
2021/09/25 09:41:38;;;;;;;0.10;0.10;;;24.20;73.60;;;;;;5001386;28;20024;-92
2021/09/25 09:44:10;;;;;;;1.40;0.63;;;24.60;72.80;;;;;;5001720;28;20033;-92
2021/09/25 09:46:51;;;;;;;0.00;0.00;;;24.70;66.80;;;;;;5001430;28;20116;-92
2021/09/25 09:49:21;;;;;;;0.30;0.30;;;24.60;68.20;;;;;;5001836;28;20075;-91
2021/09/25 09:51:50;;;;;;;1.50;1.40;;;25.00;65.30;;;;;;5001899;28;20564;-92
2021/09/25 09:54:20;;;;;;;0.20;0.20;;;24.90;63.10;;;;;;5001153;28;20396;-92
2021/09/25 09:56:48;;;;;;;0.00;0.00;;;24.90;63.40;;;;;;5001915;28;20161;-92
2021/09/25 09:59:14;;;;;;;3.63;0.35;;;25.30;62.20;;;;;;5001334;28;20113;-91
2021/09/25 10:01:41;;;;;;;0.10;0.10;;;25.20;61.40;;;;;;5001687;28;20026;-91
2021/09/25 10:04:08;;;;;;;0.00;0.00;;;25.60;61.40;;;;;;5001489;28;20037;-91
2021/09/25 10:06:36;;;;;;;0.00;0.00;;;26.10;59.90;;;;;;5001077;28;20021;-92
2021/09/25 10:09:30;;;;;;;0.00;0.00;;;26.70;58.20;;;;;;5001701;28;20033;-92
2021/09/25 10:12:02;;;;;;;0.00;0.00;;;27.10;56.90;;;;;;4998139;28;20112;-91
2021/09/25 10:14:34;;;;;;;0.45;0.45;;;27.40;55.50;;;;;;5001077;28;20506;-92
2021/09/25 10:17:02;;;;;;;0.47;0.47;;;27.70;54.20;;;;;;5001403;28;20499;-92
2021/09/25 10:19:33;;;;;;;0.00;0.00;;;27.60;53.90;;;;;;5000536;28;20028;-92
2021/09/25 10:22:11;;;;;;;0.10;0.10;;;28.00;53.90;;;;;;5000652;28;20033;-92
2021/09/25 10:24:51;;;;;;;0.15;0.15;;;28.30;53.10;;;;;;5001143;28;20087;-92
2021/09/25 10:27:18;;;;;;;0.20;0.20;;;28.50;52.90;;;;;;5000669;28;20118;-91
2021/09/25 10:29:49;;;;;;;0.32;0.32;;;28.50;52.70;;;;;;5001395;28;20552;-91
2021/09/25 10:32:18;;;;;;;0.00;0.00;;;28.40;52.30;;;;;;5001129;28;20394;-92
2021/09/25 10:35:12;;;;;;;0.45;0.45;;;28.30;52.70;;;;;;5000981;28;20021;-92
2021/09/25 10:37:39;;;;;;;1.20;0.82;;;28.60;52.70;;;;;;4998126;28;20033;-92
2021/09/25 10:40:12;;;;;;;0.30;0.20;;;28.20;52.60;;;;;;5000918;28;20437;-92
2021/09/25 10:43:01;;;;;;;0.05;0.05;;;27.60;54.20;;;;;;5000429;28;20033;-92
2021/09/25 10:45:35;;;;;;;0.43;0.35;;;28.00;53.60;;;;;;5004989;28;20375;-91
2021/09/25 10:48:05;;;;;;;0.20;0.20;;;28.40;52.90;;;;;;5007362;28;20056;-92
2021/09/25 10:50:33;;;;;;;0.00;0.00;;;28.20;53.20;;;;;;5017315;28;20026;-91
2021/09/25 10:53:17;;;;;;;0.00;0.00;;;28.70;52.90;;;;;;5003774;28;20128;-92
2021/09/25 10:55:49;;;;;;;0.00;0.00;;;28.70;52.40;;;;;;5000569;28;20057;-92
2021/09/25 10:58:26;;;;;;;0.10;0.10;;;28.40;52.90;;;;;;5000414;28;20029;-92
2021/09/25 11:00:53;;;;;;;0.00;0.00;;;27.90;53.60;;;;;;5000344;28;20087;-91
2021/09/25 11:06:21;;;;;;;0.00;0.00;;;28.50;53.90;;;;;;5008531;28;20525;-92
2021/09/25 11:08:50;;;;;;;0.22;0.22;;;28.60;54.00;;;;;;5000172;28;20142;-91
2021/09/25 11:11:19;;;;;;;0.20;0.15;;;28.80;53.80;;;;;;5000195;28;20033;-92
2021/09/25 11:14:00;;;;;;;0.00;0.00;;;29.10;52.70;;;;;;5000264;28;20099;-92
2021/09/25 11:16:45;;;;;;;0.20;0.20;;;29.30;54.10;;;;;;5000167;28;20435;-92
2021/09/25 11:19:26;;;;;;;0.38;0.10;;;29.40;53.70;;;;;;5000203;28;20132;-92
2021/09/25 11:22:03;;;;;;;0.00;0.00;;;29.80;52.00;;;;;;4999862;28;20442;-93
2021/09/25 11:24:32;;;;;;;1.08;0.35;;;30.20;51.50;;;;;;4999659;28;20075;-91
2021/09/25 11:26:58;;;;;;;0.10;0.10;;;29.60;52.00;;;;;;5000126;28;20372;-92
2021/09/25 11:29:24;;;;;;;0.00;0.00;;;29.50;51.60;;;;;;4999701;28;20394;-92
2021/09/25 11:32:00;;;;;;;1.23;1.13;;;29.50;51.60;;;;;;4998702;28;20089;-92
2021/09/25 11:34:29;;;;;;;0.20;0.20;;;29.60;51.10;;;;;;4999952;28;20440;-92
2021/09/25 11:36:59;;;;;;;0.75;0.75;;;29.50;51.60;;;;;;4999415;28;20025;-92
2021/09/25 11:39:41;;;;;;;0.00;0.00;;;29.80;51.40;;;;;;4999827;28;20056;-91
2021/09/25 11:42:08;;;;;;;0.00;0.00;;;30.10;50.90;;;;;;4999540;28;20387;-92
2021/09/25 11:44:40;;;;;;;0.00;0.00;;;29.80;50.90;;;;;;4999378;28;20044;-91
2021/09/25 11:47:06;;;;;;;0.20;0.20;;;29.20;51.10;;;;;;4999275;28;20102;-91
2021/09/25 11:49:34;;;;;;;0.00;0.00;;;29.00;52.10;;;;;;4999383;28;20029;-92
2021/09/25 11:52:00;;;;;;;0.32;0.32;;;29.10;52.20;;;;;;4999076;28;20021;-92
2021/09/25 11:54:26;;;;;;;0.10;0.10;;;29.30;51.30;;;;;;4999248;28;20398;-92
2021/09/25 11:56:57;;;;;;;0.38;0.20;;;29.20;51.70;;;;;;5001956;28;20091;-92
2021/09/25 11:59:26;;;;;;;0.60;0.45;;;29.40;51.30;;;;;;5014051;28;20036;-92
2021/09/25 12:01:52;;;;;;;0.00;0.00;;;29.00;52.30;;;;;;4999218;28;20025;-92
2021/09/25 12:04:18;;;;;;;0.00;0.00;;;28.30;53.20;;;;;;4999301;28;20029;-92
2021/09/25 12:06:58;;;;;;;0.38;0.22;;;28.60;52.30;;;;;;4999631;28;20494;-92
2021/09/25 12:09:45;;;;;;;0.10;0.10;;;28.90;51.90;;;;;;4999005;28;20029;-91
2021/09/25 12:12:11;;;;;;;0.65;0.43;;;29.40;51.20;;;;;;4998572;28;20029;-91
2021/09/25 12:14:48;;;;;;;0.30;0.15;;;29.50;51.10;;;;;;4999330;28;20360;-92
2021/09/25 12:17:16;;;;;;;0.00;0.00;;;29.80;49.20;;;;;;4999365;28;20497;-92
2021/09/25 12:19:46;;;;;;;0.00;0.00;;;29.90;50.00;;;;;;4999149;28;20025;-92
2021/09/25 12:22:28;;;;;;;0.28;0.28;;;29.90;49.40;;;;;;4999156;28;20021;-92
2021/09/25 12:24:55;;;;;;;0.38;0.38;;;29.50;50.00;;;;;;5000156;28;20414;-91
2021/09/25 12:27:26;;;;;;;0.75;0.65;;;28.60;51.30;;;;;;4999577;28;20026;-92
2021/09/25 12:30:06;;;;;;;0.17;0.17;;;28.20;51.50;;;;;;5000234;28;20030;-92
2021/09/25 12:32:40;;;;;;;0.10;0.10;;;27.70;52.60;;;;;;4998683;28;20415;-92
2021/09/25 12:35:26;;;;;;;0.00;0.00;;;27.70;53.50;;;;;;4998708;28;20482;-92
2021/09/25 12:37:52;;;;;;;5.15;4.18;;;27.80;52.60;;;;;;4999055;28;20030;-92
2021/09/25 12:40:27;;;;;;;0.75;0.43;;;28.00;51.50;;;;;;4998948;28;20076;-92
2021/09/25 12:42:52;;;;;;;0.30;0.30;;;27.20;52.70;;;;;;4998236;28;20025;-91
2021/09/25 12:45:18;;;;;;;0.88;0.85;;;26.70;53.90;;;;;;4998986;28;20036;-91
2021/09/25 12:47:45;;;;;;;0.00;0.00;;;26.60;55.20;;;;;;4998583;28;20029;-92
2021/09/25 12:50:25;;;;;;;0.10;0.10;;;26.80;55.00;;;;;;4999040;28;20513;-91
2021/09/25 12:52:55;;;;;;;0.00;0.00;;;26.90;54.20;;;;;;4999530;28;20052;-92
2021/09/25 12:55:27;;;;;;;0.00;0.00;;;27.00;54.80;;;;;;4998934;28;20024;-92